Clonakilty, Ireland
Current Conditions -  °F | °C
As of 2:30 AM on Sunday 23 Nov 2014 (Local Time) from EICK Reporting Station
Few Clouds Few Clouds  
Wind Chill: 30°   Ceiling: Unl
Heat Index: 37°   Visibility: 6mi
Dew Point: 36°   Wind: 10mph
Humidity: 93%   Direction: 300°WNW
Pressure: 30.06"   Gusts: NA
Location:  51.62°N, 8.89°W
Report Text: EICK 230230Z 30009KT 9999 FEW022 03/02 Q1018 NOSIG
Loading
Personal Weather Stations






























Interactive Weather Map New forecast layout! Learn more

10-Day Weather Forecast

Advertisements
Track Severe Weather on mobile